Depesze METAR lotnisk w Polsce

EPWA EPMO EPKK EPLL EPWR EPKT EPGD EPPO EPRZ EPSC EPLB EPBY EPZG EPSY EPCE EPDA EPDE EPIR EPKS EPLK EPLY EPMB EPMI EPMM EPNA EPOK EPPR EPPW EPRA EPSN EPTM

METAR – format kodowanego raportu o pogodzie używany w meteorologii lotniczej i prognozie pogody. METAR jest akronimem od ang. Meteorological Aerodrome Report. Typowy METAR zawiera informację o temperaturze, ciśnieniu, temperaturze punktu rosy, sile i kierunku wiatru, opadzie, pokrywie chmur, wysokości podstawy chmur, widzialności, lecz może zawierać też inne informacje (np. stan dróg startowych).

Postaw mi kawę na buycoffee.to

Warszawa-Okęcie (EPWA)

METAR = EPWA 240700Z 29011KT 9999 SCT043 16/12 Q1018 NOSIG

STACJA........... EPWA - Warszawa-Okęcie (WAW)
POMIAR........... Mon Jun 24, 09:00 CEST
WIATR............ zachodni północno-zachodni (WNW) z prędkością 20 km/h
WIDZIALNOŚĆ...... powyżej 10 kilometrów
CHMURY........... zachmurzenie małe (3/8-4/8)
TEMPERATURA...... 16°C
T.PUNKTU ROSY.... 12°C
WILGOTNOŚĆ....... 77%
CIŚNIENIE........ 1018 hPa
CIŚN.BEZWZGL..... 1005 hPa
PROGNOZA......... bez nagłych zmian w ciągu 2h

Sprawdź też: Prognoza pogody Warszawa


Warszawa-Modlin (EPMO)

METAR = EPMO 240700Z 28010KT 9999 BKN045 17/13 Q1018 =

STACJA........... EPMO - Warszawa-Modlin (WMI)
POMIAR........... Mon Jun 24, 09:00 CEST
WIATR............ zachodni (W) z prędkością 19 km/h
WIDZIALNOŚĆ...... powyżej 10 kilometrów
CHMURY........... zachmurzenie średnie (5/8-7/8)
TEMPERATURA...... 17°C
T.PUNKTU ROSY.... 13°C
WILGOTNOŚĆ....... 77%
CIŚNIENIE........ 1018 hPa
CIŚN.BEZWZGL..... 1006 hPa

Sprawdź też: Prognoza pogody Nowy Dwór Mazowiecki


Kraków-Balice (EPKK)

METAR = EPKK 240700Z 22003KT 190V250 9999 R25/1100U BKN050 17/13 Q1019

STACJA........... EPKK - Kraków-Balice (KRK)
POMIAR........... Mon Jun 24, 09:00 CEST
WIATR............ południowo-zachodni (SW) z prędkością 6 km/h
WIDZIALNOŚĆ...... powyżej 10 kilometrów
CHMURY........... zachmurzenie średnie (5/8-7/8)
TEMPERATURA...... 17°C
T.PUNKTU ROSY.... 13°C
WILGOTNOŚĆ....... 77%
CIŚNIENIE........ 1019 hPa
CIŚN.BEZWZGL..... 991 hPa

Sprawdź też: Prognoza pogody Kraków


Łódź-Lublinek (EPLL)

METAR = EPLL 240700Z 29007KT 9999 BKN031 16/11 Q1019

STACJA........... EPLL - Łódź-Lublinek (LCJ)
POMIAR........... Mon Jun 24, 09:00 CEST
WIATR............ zachodni północno-zachodni (WNW) z prędkością 13 km/h
WIDZIALNOŚĆ...... powyżej 10 kilometrów
CHMURY........... zachmurzenie średnie (5/8-7/8)
TEMPERATURA...... 16°C
T.PUNKTU ROSY.... 11°C
WILGOTNOŚĆ....... 72%
CIŚNIENIE........ 1019 hPa
CIŚN.BEZWZGL..... 997 hPa

Sprawdź też: Prognoza pogody Łódź


Wrocław-Strachowice (EPWR)

METAR = EPWR 240700Z 30004KT 200V330 9999 FEW030 20/12 Q1021

STACJA........... EPWR - Wrocław-Strachowice (WRO)
POMIAR........... Mon Jun 24, 09:00 CEST
WIATR............ zachodni północno-zachodni (WNW) z prędkością 7 km/h
WIDZIALNOŚĆ...... powyżej 10 kilometrów
CHMURY........... zachmurzenie niewielkie (1/8-2/8)
TEMPERATURA...... 20°C
T.PUNKTU ROSY.... 12°C
WILGOTNOŚĆ....... 60%
CIŚNIENIE........ 1021 hPa
CIŚN.BEZWZGL..... 1007 hPa

Sprawdź też: Prognoza pogody Wrocław


Katowice-Pyrzowice (EPKT)

METAR = EPKT 240700Z 36007KT 320V020 9999 FEW028 18/11 Q1020

STACJA........... EPKT - Katowice-Pyrzowice (KTW)
POMIAR........... Mon Jun 24, 09:00 CEST
WIATR............ północny (N) z prędkością 13 km/h
WIDZIALNOŚĆ...... powyżej 10 kilometrów
CHMURY........... zachmurzenie niewielkie (1/8-2/8)
TEMPERATURA...... 18°C
T.PUNKTU ROSY.... 11°C
WILGOTNOŚĆ....... 64%
CIŚNIENIE........ 1020 hPa
CIŚN.BEZWZGL..... 984 hPa

Sprawdź też: Prognoza pogody Katowice


Gdańsk (EPGD)

METAR = EPGD 240700Z 29013KT 9999 BKN045 15/13 Q1018

STACJA........... EPGD - Gdańsk im. Lecha Wałęsy (GDN)
POMIAR........... Mon Jun 24, 09:00 CEST
WIATR............ zachodni północno-zachodni (WNW) z prędkością 24 km/h
WIDZIALNOŚĆ...... powyżej 10 kilometrów
CHMURY........... zachmurzenie średnie (5/8-7/8)
TEMPERATURA...... 15°C
T.PUNKTU ROSY.... 13°C
WILGOTNOŚĆ....... 88%
CIŚNIENIE........ 1018 hPa
CIŚN.BEZWZGL..... 1000 hPa

Sprawdź też: Prognoza pogody Gdańsk


Poznań-Ławica (EPPO)

METAR = EPPO 240700Z 31006KT 9999 SCT022 19/12 Q1020

STACJA........... EPPO - Poznań-Ławica (POZ)
POMIAR........... Mon Jun 24, 09:00 CEST
WIATR............ północno zachodni (NW) z prędkością 11 km/h
WIDZIALNOŚĆ...... powyżej 10 kilometrów
CHMURY........... zachmurzenie małe (3/8-4/8)
TEMPERATURA...... 19°C
T.PUNKTU ROSY.... 12°C
WILGOTNOŚĆ....... 64%
CIŚNIENIE........ 1020 hPa
CIŚN.BEZWZGL..... 1009 hPa

Sprawdź też: Prognoza pogody Poznań


Rzeszów-Jasionka (EPRZ)

METAR = EPRZ 240700Z 33007KT 310V010 9999 FEW033 20/11 Q1018

STACJA........... EPRZ - Rzeszów-Jasionka (RZE)
POMIAR........... Mon Jun 24, 09:00 CEST
WIATR............ północno północno-zachodni (NNW) z prędkością 13 km/h
WIDZIALNOŚĆ...... powyżej 10 kilometrów
CHMURY........... zachmurzenie niewielkie (1/8-2/8)
TEMPERATURA...... 20°C
T.PUNKTU ROSY.... 11°C
WILGOTNOŚĆ....... 56%
CIŚNIENIE........ 1018 hPa
CIŚN.BEZWZGL..... 993 hPa

Sprawdź też: Prognoza pogody Rzeszów


Szczecin-Goleniów (EPSC)

METAR = EPSC 240700Z 30005KT 260V320 9999 SCT015 19/14 Q1020

STACJA........... EPSC - Szczecin-Goleniów (SZZ)
POMIAR........... Mon Jun 24, 09:00 CEST
WIATR............ zachodni północno-zachodni (WNW) z prędkością 9 km/h
WIDZIALNOŚĆ...... powyżej 10 kilometrów
CHMURY........... zachmurzenie małe (3/8-4/8)
TEMPERATURA...... 19°C
T.PUNKTU ROSY.... 14°C
WILGOTNOŚĆ....... 73%
CIŚNIENIE........ 1020 hPa
CIŚN.BEZWZGL..... 1014 hPa

Sprawdź też: Prognoza pogody Szczecin


Lublin-Świdnik (EPLB)

METAR = EPLB 240700Z 31008KT 270V340 9999 FEW020 BKN037 18/13 Q1017 =

STACJA........... EPLB - Lublin-Świdnik (LUZ)
POMIAR........... Mon Jun 24, 09:00 CEST
WIATR............ północno zachodni (NW) z prędkością 15 km/h
WIDZIALNOŚĆ...... powyżej 10 kilometrów
CHMURY........... zachmurzenie średnie (5/8-7/8)
TEMPERATURA...... 18°C
T.PUNKTU ROSY.... 13°C
WILGOTNOŚĆ....... 73%
CIŚNIENIE........ 1017 hPa
CIŚN.BEZWZGL..... 993 hPa

Sprawdź też: Prognoza pogody Lublin


Bydgoszcz-Szwederowo (EPBY)

METAR = EPBY 240700Z 30008KT 270V340 9999 SCT018 18/12 Q1019

STACJA........... EPBY - Bydgoszcz-Szwederowo (BZG)
POMIAR........... Mon Jun 24, 09:00 CEST
WIATR............ zachodni północno-zachodni (WNW) z prędkością 15 km/h
WIDZIALNOŚĆ...... powyżej 10 kilometrów
CHMURY........... zachmurzenie małe (3/8-4/8)
TEMPERATURA...... 18°C
T.PUNKTU ROSY.... 12°C
WILGOTNOŚĆ....... 68%
CIŚNIENIE........ 1019 hPa
CIŚN.BEZWZGL..... 1010 hPa

Sprawdź też: Prognoza pogody Bydgoszcz


Zielona Góra-Babimost (EPZG)

METAR = EPZG 240700Z VRB02KT 9999 SCT024 20/14 Q1021 =

STACJA........... EPZG - Zielona Góra-Babimost (IEG)
POMIAR........... Mon Jun 24, 09:00 CEST
WIATR............ zmienny z prędkością 4 km/h
WIDZIALNOŚĆ...... powyżej 10 kilometrów
CHMURY........... zachmurzenie małe (3/8-4/8)
TEMPERATURA...... 20°C
T.PUNKTU ROSY.... 14°C
WILGOTNOŚĆ....... 69%
CIŚNIENIE........ 1021 hPa
CIŚN.BEZWZGL..... 1014 hPa

Sprawdź też: Prognoza pogody Zielona Góra


Szymany Olsztyn-Mazury (EPSY)

METAR = EPSY 240700Z 31009KT 9999 BKN014 OVC038 17/14 Q1017=

STACJA........... EPSY - Olsztyn-Mazury (SZY)
POMIAR........... Mon Jun 24, 09:00 CEST
WIATR............ północno zachodni (NW) z prędkością 17 km/h
WIDZIALNOŚĆ...... powyżej 10 kilometrów
CHMURY........... zachmurzenie całkowite (8/8)
TEMPERATURA...... 17°C
T.PUNKTU ROSY.... 14°C
WILGOTNOŚĆ....... 83%
CIŚNIENIE........ 1017 hPa
CIŚN.BEZWZGL..... 1000 hPa

Sprawdź też: Prognoza pogody Olsztyn


Cewice (EPCE)

METAR = 

STACJA........... EPCE - Cewice
POMIAR........... Thu Jan 1, 03:00 CET
BŁĄD............. Dane niedostępne.

Darłowo (EPDA)

METAR = 

STACJA........... EPDA - Darłowo
POMIAR........... Thu Jan 1, 03:00 CET
BŁĄD............. Dane niedostępne.

Dęblin (EPDE)

METAR = 

STACJA........... EPDE - Dęblin
POMIAR........... Thu Jan 1, 03:00 CET
BŁĄD............. Dane niedostępne.

Inowrocław-Latkowo (EPIR)

METAR = 

STACJA........... EPIR - Inowrocław-Latkowo
POMIAR........... Thu Jan 1, 03:00 CET
BŁĄD............. Dane niedostępne.

Poznań-Krzesiny (EPKS)

METAR = 

STACJA........... EPKS - Poznań-Krzesiny
POMIAR........... Thu Jan 1, 03:00 CET
BŁĄD............. Dane niedostępne.

Łask (EPLK)

METAR = 

STACJA........... EPLK - Łask
POMIAR........... Thu Jan 1, 03:00 CET
BŁĄD............. Dane niedostępne.

Łęczyca (EPLY)

METAR = 

STACJA........... EPLY - Łęczyca
POMIAR........... Thu Jan 1, 03:00 CET
BŁĄD............. Dane niedostępne.

Malbork (EPMB)

METAR = 

STACJA........... EPMB - Malbork
POMIAR........... Thu Jan 1, 03:00 CET
BŁĄD............. Dane niedostępne.

Mirosławiec (EPMI)

METAR = 

STACJA........... EPMI - Mirosławiec
POMIAR........... Thu Jan 1, 03:00 CET
BŁĄD............. Dane niedostępne.

Mińsk Mazowiecki (EPMM)

METAR = 

STACJA........... EPMM - Mińsk Mazowiecki
POMIAR........... Thu Jan 1, 03:00 CET
BŁĄD............. Dane niedostępne.

Nadarzyce (EPNA)

METAR = 

STACJA........... EPNA - Nadarzyce
POMIAR........... Thu Jan 1, 03:00 CET
BŁĄD............. Dane niedostępne.

Gdynia-Kosakowo (EPOK)

METAR = 

STACJA........... EPOK - Gdynia-Kosakowo
POMIAR........... Thu Jan 1, 03:00 CET
BŁĄD............. Dane niedostępne.

Pruszcz Gdański (EPPR)

METAR = 

STACJA........... EPPR - Pruszcz Gdański
POMIAR........... Thu Jan 1, 03:00 CET
BŁĄD............. Dane niedostępne.

Powidz (EPPW)

METAR = 

STACJA........... EPPW - Powidz
POMIAR........... Thu Jan 1, 03:00 CET
BŁĄD............. Dane niedostępne.

Radom-Sadków (EPRA)

METAR = EPRA 240700Z 31010KT 280V340 9999 BKN045 18/13 Q1018

STACJA........... EPRA - Radom-Sadków
POMIAR........... Mon Jun 24, 09:00 CEST
WIATR............ północno zachodni (NW) z prędkością 19 km/h
WIDZIALNOŚĆ...... powyżej 10 kilometrów
CHMURY........... zachmurzenie średnie (5/8-7/8)
TEMPERATURA...... 18°C
T.PUNKTU ROSY.... 13°C
WILGOTNOŚĆ....... 73%
CIŚNIENIE........ 1018 hPa
CIŚN.BEZWZGL..... 996 hPa

Świdwin (EPSN)

METAR = 

STACJA........... EPSN - Świdwin
POMIAR........... Thu Jan 1, 03:00 CET
BŁĄD............. Dane niedostępne.

Tomaszów Mazowiecki (EPTM)

METAR = 

STACJA........... EPTM - Tomaszów Mazowiecki
POMIAR........... Thu Jan 1, 03:00 CET
BŁĄD............. Dane niedostępne.